Paauilo, Hawaii
Current Conditions -  °F | °C
As of 12:56 AM on Friday 31 Oct 2014 (Local Time) from PHSF Reporting Station
Broken Clouds Broken Clouds  
Wind Chill: 52°   Ceiling: 20000
Heat Index: 52°   Visibility: 10mi
Dew Point: 46°   Wind: 5mph
Humidity: 80%   Direction: 160°SSE
Pressure: 30.35"   Gusts: NA
Location:  20.03°N, 155.36°W
Report Text: PHSF 311056Z AUTO 16004KT 10SM BKN200 11/08 A3035 RMK AO2 SLP160 T01120079 $
Loading
Personal Weather Stations






























Interactive Weather Map
Tropical Storm Tracking
New forecast layout! Learn more

10-Day Weather Forecast

Advertisements
Track Severe Weather on mobile